Beckermet, United Kingdom
Current Conditions -  °F | °C
As of 6:50 AM on Sunday 26 Oct 2014 (Local Time) from EGNS Reporting Station
Scattered Clouds Scattered Clouds  
Wind Chill: 57°   Ceiling: Unl
Heat Index: 57°   Visibility: 6mi
Dew Point: 48°   Wind: 25mph
Humidity: 72%   Direction: 240°WSW
Pressure: 29.83"   Gusts: NA
Location:  54.45°N, 3.51°W
Report Text: EGNS 260550Z 24022KT 220V290 9999 FEW025 SCT032 14/09 Q1010 NOSIG
Loading
Personal Weather Stations






























Interactive Weather Map
Tropical Storm Tracking
New forecast layout! Learn more

10-Day Weather Forecast

Advertisements
Track Severe Weather on mobile